createdAt,value
2019-02-14T00:00:44.533Z,45.59
2019-02-14T00:03:19.863Z,45.93
2019-02-14T00:05:50.942Z,45.94
2019-02-14T00:08:25.104Z,45.57
2019-02-14T00:10:56.884Z,45.59
2019-02-14T00:13:39.874Z,45.96
2019-02-14T00:16:16.318Z,45.92
2019-02-14T00:18:48.341Z,46.05
2019-02-14T00:21:28.615Z,46.30
2019-02-14T00:24:01.758Z,46.55
2019-02-14T00:26:37.800Z,46.50
2019-02-14T00:29:08.054Z,46.74
2019-02-14T00:31:51.558Z,47.09
2019-02-14T00:34:22.635Z,47.21
2019-02-14T00:36:54.245Z,47.25
2019-02-14T00:39:26.950Z,47.04
2019-02-14T00:42:03.710Z,47.09
2019-02-14T00:44:36.171Z,46.97
2019-02-14T00:47:16.667Z,46.76
2019-02-14T00:49:48.088Z,46.61
2019-02-14T00:52:17.940Z,46.80
2019-02-14T00:54:47.899Z,47.05
2019-02-14T00:57:24.600Z,47.25
2019-02-14T00:59:58.124Z,47.39
2019-02-14T01:02:30.802Z,47.57
2019-02-14T01:05:04.039Z,47.53
2019-02-14T01:07:34.844Z,47.63
2019-02-14T01:10:05.300Z,47.68
2019-02-14T01:12:40.901Z,47.66
2019-02-14T01:15:15.123Z,47.59
2019-02-14T01:17:46.578Z,47.60
2019-02-14T01:20:18.414Z,47.62
2019-02-14T01:22:53.555Z,47.56
2019-02-14T01:25:24.250Z,47.56
2019-02-14T01:27:59.079Z,47.45
2019-02-14T01:30:28.958Z,47.49
2019-02-14T01:32:58.940Z,47.49
2019-02-14T01:35:29.186Z,47.44
2019-02-14T01:38:02.914Z,46.98
2019-02-14T01:40:38.653Z,46.63
2019-02-14T01:43:08.515Z,46.40
2019-02-14T01:45:41.420Z,46.97
2019-02-14T01:48:11.178Z,46.73
2019-02-14T01:50:44.564Z,46.69
2019-02-14T01:53:17.172Z,47.07
2019-02-14T01:55:54.155Z,47.33
2019-02-14T01:58:29.101Z,47.27
2019-02-14T02:00:58.823Z,47.12
2019-02-14T02:03:31.221Z,47.20
2019-02-14T02:06:11.467Z,47.57
2019-02-14T02:08:42.159Z,47.96
2019-02-14T02:11:20.357Z,48.13
2019-02-14T02:13:50.356Z,48.08
2019-02-14T02:16:23.209Z,48.08
2019-02-14T02:18:52.993Z,48.43
2019-02-14T02:21:23.971Z,47.73
2019-02-14T02:26:48.827Z,48.07
2019-02-14T02:29:18.801Z,47.81
2019-02-14T02:31:51.653Z,47.77
2019-02-14T02:34:21.922Z,47.76
2019-02-14T02:36:54.489Z,47.80
2019-02-14T02:39:25.593Z,47.85
2019-02-14T02:41:55.840Z,48.06
2019-02-14T02:44:29.986Z,48.18
2019-02-14T02:47:00.593Z,48.13
2019-02-14T02:49:31.705Z,48.13
2019-02-14T02:52:01.698Z,48.04
2019-02-14T02:54:32.656Z,48.38
2019-02-14T02:57:04.797Z,48.78
2019-02-14T02:59:38.409Z,48.80
2019-02-14T03:02:08.621Z,48.77
2019-02-14T03:04:42.117Z,49.08
2019-02-14T03:07:15.178Z,49.20
2019-02-14T03:09:46.423Z,49.39
2019-02-14T03:12:17.371Z,49.47
2019-02-14T03:14:49.112Z,49.51
2019-02-14T03:17:21.268Z,49.33
2019-02-14T03:19:56.562Z,49.45
2019-02-14T03:22:30.091Z,49.53
2019-02-14T03:25:15.220Z,49.67
2019-02-14T03:27:50.042Z,49.71
2019-02-14T03:30:20.113Z,49.54
2019-02-14T03:32:52.209Z,49.59
2019-02-14T03:35:23.153Z,49.53
2019-02-14T03:37:56.238Z,49.43
2019-02-14T03:40:30.995Z,49.52
2019-02-14T03:43:03.144Z,49.60
2019-02-14T03:45:37.084Z,49.63
2019-02-14T03:48:09.397Z,49.67
2019-02-14T03:50:45.439Z,49.67
2019-02-14T03:53:28.124Z,49.67
2019-02-14T03:56:10.509Z,49.80
2019-02-14T03:58:54.056Z,49.77
2019-02-14T04:01:37.709Z,49.81
2019-02-14T04:04:25.224Z,50.06
2019-02-14T04:07:09.782Z,50.30
2019-02-14T04:09:47.287Z,50.30
2019-02-14T04:12:23.034Z,50.08
2019-02-14T04:14:55.660Z,50.29
2019-02-14T04:17:30.793Z,50.33
2019-02-14T04:20:13.334Z,50.49
2019-02-14T04:22:45.829Z,50.65
2019-02-14T04:25:27.808Z,50.82
2019-02-14T04:28:11.679Z,50.80
2019-02-14T04:31:01.009Z,50.76
2019-02-14T04:33:37.611Z,50.90
2019-02-14T04:36:18.667Z,50.79
2019-02-14T04:38:49.682Z,50.72
2019-02-14T04:41:31.325Z,50.83
2019-02-14T04:44:11.215Z,50.85
2019-02-14T04:47:05.992Z,50.87
2019-02-14T04:49:45.752Z,50.99
2019-02-14T04:52:34.538Z,50.87
2019-02-14T04:55:23.838Z,50.81
2019-02-14T04:57:57.050Z,50.84
2019-02-14T05:00:30.981Z,50.81
2019-02-14T05:03:06.172Z,50.80
2019-02-14T05:05:46.484Z,50.95
2019-02-14T05:08:23.740Z,51.01
2019-02-14T05:10:55.174Z,50.88
2019-02-14T05:13:37.044Z,50.85
2019-02-14T05:16:08.575Z,50.76
2019-02-14T05:18:46.700Z,50.90
2019-02-14T05:21:26.899Z,51.04
2019-02-14T05:24:13.207Z,51.19
2019-02-14T05:26:49.770Z,51.02
2019-02-14T05:29:27.547Z,50.90
2019-02-14T05:32:13.041Z,50.82
2019-02-14T05:34:57.116Z,50.84
2019-02-14T05:37:34.110Z,50.89
2019-02-14T05:40:11.340Z,50.76
2019-02-14T05:42:48.884Z,50.52
2019-02-14T05:45:29.810Z,50.24
2019-02-14T05:48:13.018Z,49.90
2019-02-14T05:50:58.752Z,49.83
2019-02-14T05:53:33.170Z,49.62
2019-02-14T05:56:03.095Z,49.60
2019-02-14T05:58:33.599Z,49.08
2019-02-14T06:01:10.515Z,49.08
2019-02-14T06:03:47.200Z,49.04
2019-02-14T06:06:27.120Z,49.09
2019-02-14T06:08:58.434Z,49.15
2019-02-14T06:13:55.400Z,48.82
2019-02-14T06:16:45.340Z,48.75
2019-02-14T06:19:38.159Z,48.71
2019-02-14T06:22:18.412Z,48.73
2019-02-14T06:25:09.341Z,48.88
2019-02-14T06:27:40.795Z,48.77
2019-02-14T06:30:38.864Z,48.63
2019-02-14T06:33:28.523Z,48.77
2019-02-14T06:36:14.251Z,48.46
2019-02-14T06:42:07.981Z,48.08
2019-02-14T06:44:51.099Z,48.04
2019-02-14T06:47:40.005Z,48.04
2019-02-14T06:53:34.524Z,48.73
2019-02-14T06:56:05.318Z,48.53
2019-02-14T06:58:54.835Z,48.48
2019-02-14T07:01:47.785Z,48.28
2019-02-14T07:07:21.636Z,47.63
2019-02-14T07:10:11.788Z,46.51
2019-02-14T07:15:48.810Z,46.35
2019-02-14T07:25:13.754Z,46.78
2019-02-14T07:28:02.702Z,47.00
2019-02-14T07:37:14.868Z,47.68
2019-02-14T07:40:07.051Z,47.78
2019-02-14T07:43:01.845Z,47.74
2019-02-14T07:45:35.686Z,47.94
2019-02-14T07:48:27.816Z,47.99
2019-02-14T07:51:00.224Z,48.08
2019-02-14T07:53:30.169Z,48.00
2019-02-14T07:59:24.005Z,48.03
2019-02-14T08:01:53.854Z,47.97
2019-02-14T08:04:44.382Z,48.02
2019-02-14T08:07:35.967Z,48.30
2019-02-14T08:10:07.965Z,48.11
2019-02-14T08:12:39.936Z,47.91
2019-02-14T08:15:13.303Z,48.13
2019-02-14T08:17:43.279Z,47.80
2019-02-14T08:20:41.387Z,47.64
2019-02-14T08:23:11.262Z,47.38
2019-02-14T08:28:23.014Z,47.10
2019-02-14T08:30:53.023Z,47.23
2019-02-14T08:34:01.026Z,47.40
2019-02-14T08:37:14.758Z,47.46
2019-02-14T08:43:39.122Z,47.33
2019-02-14T08:49:20.761Z,47.45
2019-02-14T08:51:59.599Z,47.59
2019-02-14T08:54:31.637Z,46.74
2019-02-14T08:57:04.416Z,46.21
2019-02-14T08:59:34.635Z,45.50
2019-02-14T09:02:04.818Z,45.07
2019-02-14T09:04:39.539Z,44.60
2019-02-14T09:10:15.173Z,43.48
2019-02-14T09:13:23.389Z,43.33
2019-02-14T09:16:12.143Z,43.35
2019-02-14T09:19:04.547Z,42.82
2019-02-14T09:24:47.488Z,42.33
2019-02-14T09:27:19.805Z,42.26
2019-02-14T09:30:04.966Z,43.01
2019-02-14T09:32:44.695Z,43.35
2019-02-14T09:35:14.744Z,43.12
2019-02-14T09:38:07.744Z,42.85
2019-02-14T09:44:26.527Z,42.44
2019-02-14T09:47:21.240Z,41.14
2019-02-14T09:50:12.594Z,40.68
2019-02-14T09:59:02.137Z,39.39
2019-02-14T10:01:47.214Z,39.32
2019-02-14T10:04:09.337Z,40.46
2019-02-14T10:06:39.439Z,39.49
2019-02-14T10:09:31.621Z,39.18
2019-02-14T10:15:31.690Z,38.99
2019-02-14T10:21:30.716Z,37.93
2019-02-14T10:24:25.138Z,38.13
2019-02-14T10:27:14.489Z,38.42
2019-02-14T10:30:25.602Z,39.65
2019-02-14T10:35:58.467Z,35.78
2019-02-14T10:38:48.256Z,35.78
2019-02-14T10:41:19.081Z,36.04
2019-02-14T10:50:04.083Z,35.01
2019-02-14T10:55:57.564Z,34.38
2019-02-14T10:58:28.351Z,33.89
2019-02-14T11:07:26.377Z,32.77
2019-02-14T11:13:37.873Z,31.17
2019-02-14T11:16:29.098Z,30.37
2019-02-14T11:25:17.168Z,30.55
2019-02-14T11:30:54.450Z,31.60
2019-02-14T11:33:45.351Z,31.55
2019-02-14T11:36:35.175Z,31.55
2019-02-14T11:45:37.243Z,30.06
2019-02-14T11:48:08.266Z,28.59
2019-02-14T11:53:45.710Z,27.81
2019-02-14T11:59:48.167Z,26.60
2019-02-14T12:02:38.066Z,26.70
2019-02-14T12:05:33.237Z,26.31
2019-02-14T12:10:57.129Z,27.08
2019-02-14T12:16:54.896Z,27.13
2019-02-14T12:19:33.213Z,26.82
2019-02-14T12:28:07.196Z,26.67
2019-02-14T12:40:03.904Z,25.75
2019-02-14T12:43:15.442Z,25.76
2019-02-14T12:46:25.200Z,25.31
2019-02-14T12:52:08.735Z,25.78
2019-02-14T12:54:39.130Z,25.82
2019-02-14T13:03:05.611Z,27.00
2019-02-14T13:05:37.865Z,27.00
2019-02-14T13:08:29.717Z,26.59
2019-02-14T13:11:01.017Z,27.35
2019-02-14T13:13:40.031Z,27.25
2019-02-14T13:19:22.525Z,27.80
2019-02-14T13:22:30.266Z,27.96
2019-02-14T13:25:21.963Z,28.03
2019-02-14T13:28:11.598Z,27.55
2019-02-14T13:31:00.822Z,27.27
2019-02-14T13:33:50.560Z,27.39
2019-02-14T13:36:40.354Z,27.10
2019-02-14T13:39:32.709Z,27.10
2019-02-14T13:42:22.887Z,26.95
2019-02-14T13:44:52.947Z,27.04
2019-02-14T13:47:23.169Z,26.69
2019-02-14T13:50:31.772Z,26.68
2019-02-14T13:53:22.847Z,27.00
2019-02-14T14:02:24.308Z,26.53
2019-02-14T14:04:55.297Z,26.26
2019-02-14T14:07:26.268Z,25.41
2019-02-14T14:09:58.248Z,25.39
2019-02-14T14:12:53.214Z,25.91
2019-02-14T14:15:26.385Z,26.17
2019-02-14T14:18:17.534Z,25.20
2019-02-14T14:26:05.982Z,25.08
2019-02-14T14:29:01.199Z,25.31
2019-02-14T14:34:36.732Z,24.08
2019-02-14T14:37:38.388Z,24.52
2019-02-14T14:40:28.413Z,24.98
2019-02-14T14:46:27.660Z,24.93
2019-02-14T14:49:19.187Z,24.74
2019-02-14T14:52:09.152Z,24.94
2019-02-14T14:54:45.173Z,24.94
2019-02-14T14:57:36.663Z,24.85
2019-02-14T15:00:46.457Z,24.96
2019-02-14T15:06:17.480Z,25.09
2019-02-14T15:09:09.228Z,25.50
2019-02-14T15:14:32.220Z,25.85
2019-02-14T15:17:04.347Z,25.70
2019-02-14T15:20:13.803Z,25.99
2019-02-14T15:22:44.602Z,25.49
2019-02-14T15:25:16.630Z,25.18
2019-02-14T15:27:47.507Z,24.85
2019-02-14T15:30:18.357Z,25.16
2019-02-14T15:39:11.869Z,25.05
2019-02-14T15:50:15.070Z,25.74
2019-02-14T15:53:07.946Z,26.58
2019-02-14T16:11:34.008Z,28.03
2019-02-14T16:16:25.216Z,28.24
2019-02-14T16:19:36.502Z,28.32
2019-02-14T16:22:30.055Z,28.19
2019-02-14T16:28:41.776Z,29.11
2019-02-14T16:31:13.665Z,30.83
2019-02-14T16:37:06.278Z,31.80
2019-02-14T16:41:37.406Z,32.68
2019-02-14T16:51:51.101Z,35.19
2019-02-14T16:54:36.302Z,35.47
2019-02-14T16:57:14.391Z,35.63
2019-02-14T17:12:03.121Z,36.73
2019-02-14T17:14:53.017Z,36.95
2019-02-14T17:17:34.290Z,37.15
2019-02-14T17:20:43.318Z,37.18
2019-02-14T17:23:31.696Z,37.55
2019-02-14T17:35:41.146Z,38.19
2019-02-14T17:41:22.334Z,38.54
2019-02-14T17:44:12.523Z,38.79
2019-02-14T17:49:53.709Z,39.25
2019-02-14T17:52:44.423Z,39.70
2019-02-14T17:55:24.132Z,39.98
2019-02-14T17:58:07.214Z,39.78
2019-02-14T18:00:48.576Z,39.81
2019-02-14T18:03:32.392Z,39.91
2019-02-14T18:06:23.435Z,40.17
2019-02-14T18:09:04.941Z,40.29
2019-02-14T18:14:56.518Z,40.54
2019-02-14T18:17:27.169Z,40.73
2019-02-14T18:20:25.467Z,40.56
2019-02-14T18:23:15.554Z,40.57
2019-02-14T18:29:06.455Z,40.78
2019-02-14T18:34:22.394Z,40.29
2019-02-14T18:40:12.197Z,40.74
2019-02-14T18:45:42.898Z,40.06
2019-02-14T18:48:17.376Z,40.11
2019-02-14T18:54:19.741Z,39.53
2019-02-14T18:56:51.321Z,39.50
2019-02-14T18:59:21.304Z,39.39
2019-02-14T19:04:44.418Z,38.76
2019-02-14T19:10:35.410Z,38.57
2019-02-14T19:16:16.495Z,37.96
2019-02-14T19:19:20.911Z,38.40
2019-02-14T19:22:01.382Z,38.64
2019-02-14T19:24:51.854Z,38.48
2019-02-14T19:39:47.942Z,36.53
2019-02-14T19:45:15.930Z,36.01
2019-02-14T19:47:50.067Z,35.74
2019-02-14T19:50:39.267Z,35.63
2019-02-14T19:56:56.626Z,34.96
2019-02-14T20:02:47.654Z,33.62
2019-02-14T20:05:57.019Z,33.56
2019-02-14T20:09:06.031Z,33.71
2019-02-14T20:11:38.457Z,33.36
2019-02-14T20:25:54.856Z,32.58
2019-02-14T20:28:35.664Z,32.97
2019-02-14T20:40:48.290Z,34.34
2019-02-14T20:43:40.162Z,34.30
2019-02-14T20:49:19.035Z,34.79
2019-02-14T20:51:55.146Z,34.79
2019-02-14T20:57:32.059Z,36.07
2019-02-14T21:06:31.002Z,37.66
2019-02-14T21:09:19.916Z,38.23
2019-02-14T21:14:54.270Z,39.06
2019-02-14T21:17:24.153Z,39.49
2019-02-14T21:20:33.823Z,39.67
2019-02-14T21:23:03.825Z,39.67
2019-02-14T21:37:44.760Z,38.55
2019-02-14T21:44:03.842Z,38.01
2019-02-14T21:46:36.116Z,37.91
2019-02-14T21:49:25.142Z,37.55
2019-02-14T21:55:39.305Z,37.10
2019-02-14T21:58:17.634Z,36.89
2019-02-14T22:01:02.290Z,36.56
2019-02-14T22:03:44.147Z,36.50
2019-02-14T22:06:34.877Z,36.30
2019-02-14T22:09:15.979Z,36.34
2019-02-14T22:12:38.553Z,36.14
2019-02-14T22:15:14.693Z,36.13
2019-02-14T22:18:03.683Z,36.24
2019-02-14T22:20:33.723Z,36.16
2019-02-14T22:23:22.675Z,36.13
2019-02-14T22:25:52.535Z,35.90
2019-02-14T22:31:26.616Z,35.93
2019-02-14T22:34:15.666Z,36.21
2019-02-14T22:39:53.324Z,36.83
2019-02-14T22:45:44.604Z,37.17
2019-02-14T22:48:14.625Z,37.09
2019-02-14T22:51:05.070Z,37.14
2019-02-14T22:53:35.111Z,37.15
2019-02-14T22:56:05.188Z,37.17
2019-02-14T23:01:34.667Z,37.51
2019-02-14T23:04:04.645Z,37.68
2019-02-14T23:06:54.722Z,37.98
2019-02-14T23:09:24.836Z,38.26
2019-02-14T23:11:54.711Z,38.45
2019-02-14T23:14:58.798Z,38.62
2019-02-14T23:20:10.884Z,38.88
2019-02-14T23:22:41.013Z,38.95
2019-02-14T23:25:11.071Z,39.05
2019-02-14T23:27:41.378Z,39.19
2019-02-14T23:33:21.853Z,39.65
2019-02-14T23:36:12.884Z,39.93
2019-02-14T23:39:23.219Z,39.99
2019-02-14T23:42:23.880Z,40.20
2019-02-14T23:48:02.088Z,40.64
2019-02-14T23:51:12.954Z,40.89
2019-02-14T23:54:05.906Z,40.86
